sensor_id;sensor_type;location;lat;lon;timestamp;pressure;altitude;pressure_sealevel;temperature
48628;BMP280;34424;52.234;6.500;2023-02-28T00:00:53;143895.53;;;-0.28
48628;BMP280;34424;52.234;6.500;2023-02-28T00:05:57;143910.28;;;-0.22
48628;BMP280;34424;52.234;6.500;2023-02-28T00:11:01;143929.91;;;-0.14
48628;BMP280;34424;52.234;6.500;2023-02-28T00:16:04;143947.09;;;-0.07
48628;BMP280;34424;52.234;6.500;2023-02-28T00:21:09;143965.53;;;0.01
48628;BMP280;34424;52.234;6.500;2023-02-28T00:26:12;144002.34;;;0.16
48628;BMP280;34424;52.234;6.500;2023-02-28T00:31:15;144015.81;;;0.21
48628;BMP280;34424;52.234;6.500;2023-02-28T00:36:19;144025.69;;;0.25
48628;BMP280;34424;52.234;6.500;2023-02-28T00:41:21;144030.59;;;0.27
48628;BMP280;34424;52.234;6.500;2023-02-28T00:46:24;144039.19;;;0.31
48628;BMP280;34424;52.234;6.500;2023-02-28T00:51:28;144046.53;;;0.34
48628;BMP280;34424;52.234;6.500;2023-02-28T00:56:31;144047.78;;;0.35
48628;BMP280;34424;52.234;6.500;2023-02-28T01:01:34;144050.22;;;0.36
48628;BMP280;34424;52.234;6.500;2023-02-28T01:06:38;144060.03;;;0.40
48628;BMP280;34424;52.234;6.500;2023-02-28T01:11:41;144062.50;;;0.41
48628;BMP280;34424;52.234;6.500;2023-02-28T01:16:51;144074.75;;;0.46
48628;BMP280;34424;52.234;6.500;2023-02-28T01:21:55;144073.53;;;0.45
48628;BMP280;34424;52.234;6.500;2023-02-28T01:26:58;144083.41;;;0.49
48628;BMP280;34424;52.234;6.500;2023-02-28T01:32:00;144076.00;;;0.46
48628;BMP280;34424;52.234;6.500;2023-02-28T01:37:04;144078.44;;;0.47
48628;BMP280;34424;52.234;6.500;2023-02-28T01:42:08;144077.22;;;0.47
48628;BMP280;34424;52.234;6.500;2023-02-28T01:47:11;144083.41;;;0.49
48628;BMP280;34424;52.234;6.500;2023-02-28T01:52:15;144087.09;;;0.51
48628;BMP280;34424;52.234;6.500;2023-02-28T01:57:24;144087.09;;;0.51
48628;BMP280;34424;52.234;6.500;2023-02-28T02:02:28;144092.00;;;0.53
48628;BMP280;34424;52.234;6.500;2023-02-28T02:07:34;144099.34;;;0.56
48628;BMP280;34424;52.234;6.500;2023-02-28T02:12:55;144099.34;;;0.56
48628;BMP280;34424;52.234;6.500;2023-02-28T02:18:12;144100.56;;;0.56
48628;BMP280;34424;52.234;6.500;2023-02-28T02:23:44;144098.13;;;0.55
48628;BMP280;34424;52.234;6.500;2023-02-28T02:29:08;144099.34;;;0.56
48628;BMP280;34424;52.234;6.500;2023-02-28T02:34:26;144105.50;;;0.58
48628;BMP280;34424;52.234;6.500;2023-02-28T02:39:39;144105.50;;;0.58
48628;BMP280;34424;52.234;6.500;2023-02-28T02:44:46;144101.81;;;0.57
48628;BMP280;34424;52.234;6.500;2023-02-28T02:49:55;144099.34;;;0.56
48628;BMP280;34424;52.234;6.500;2023-02-28T02:54:59;144094.44;;;0.54
48628;BMP280;34424;52.234;6.500;2023-02-28T03:00:04;144084.63;;;0.50
48628;BMP280;34424;52.234;6.500;2023-02-28T03:05:18;144071.09;;;0.44
48628;BMP280;34424;52.234;6.500;2023-02-28T03:10:31;144067.41;;;0.43
48628;BMP280;34424;52.234;6.500;2023-02-28T03:15:43;144055.13;;;0.38
48628;BMP280;34424;52.234;6.500;2023-02-28T03:20:56;144055.13;;;0.38
48628;BMP280;34424;52.234;6.500;2023-02-28T03:26:06;144049.00;;;0.35
48628;BMP280;34424;52.234;6.500;2023-02-28T03:31:17;144050.22;;;0.36
48628;BMP280;34424;52.234;6.500;2023-02-28T03:36:25;144041.63;;;0.32
48628;BMP280;34424;52.234;6.500;2023-02-28T03:41:32;144035.50;;;0.29
48628;BMP280;34424;52.234;6.500;2023-02-28T03:46:41;144030.59;;;0.27
48628;BMP280;34424;52.234;6.500;2023-02-28T03:51:50;144020.72;;;0.23
48628;BMP280;34424;52.234;6.500;2023-02-28T03:56:57;144010.91;;;0.19
48628;BMP280;34424;52.234;6.500;2023-02-28T04:02:03;144008.47;;;0.18
48628;BMP280;34424;52.234;6.500;2023-02-28T04:07:08;144009.69;;;0.19
48628;BMP280;34424;52.234;6.500;2023-02-28T04:12:13;144008.47;;;0.18
48628;BMP280;34424;52.234;6.500;2023-02-28T04:17:15;144003.56;;;0.16
48628;BMP280;34424;52.234;6.500;2023-02-28T04:22:19;143998.66;;;0.14
48628;BMP280;34424;52.234;6.500;2023-02-28T04:27:22;143991.28;;;0.11
48628;BMP280;34424;52.234;6.500;2023-02-28T04:32:25;143983.94;;;0.08
48628;BMP280;34424;52.234;6.500;2023-02-28T04:37:29;143966.75;;;0.01
48628;BMP280;34424;52.234;6.500;2023-02-28T04:42:31;143950.75;;;-0.06
48628;BMP280;34424;52.234;6.500;2023-02-28T04:47:36;143936.03;;;-0.12
48628;BMP280;34424;52.234;6.500;2023-02-28T04:52:40;143929.91;;;-0.14
48628;BMP280;34424;52.234;6.500;2023-02-28T04:57:43;143929.91;;;-0.14
48628;BMP280;34424;52.234;6.500;2023-02-28T05:02:45;143918.88;;;-0.19
48628;BMP280;34424;52.234;6.500;2023-02-28T05:07:49;143910.28;;;-0.22
48628;BMP280;34424;52.234;6.500;2023-02-28T05:12:52;143884.50;;;-0.33
48628;BMP280;34424;52.234;6.500;2023-02-28T05:17:54;143863.66;;;-0.42
48628;BMP280;34424;52.234;6.500;2023-02-28T05:22:59;143851.41;;;-0.47
48628;BMP280;34424;52.234;6.500;2023-02-28T05:28:02;143859.97;;;-0.43
48628;BMP280;34424;52.234;6.500;2023-02-28T05:33:05;143873.47;;;-0.38
48628;BMP280;34424;52.234;6.500;2023-02-28T05:38:09;143883.28;;;-0.34
48628;BMP280;34424;52.234;6.500;2023-02-28T05:43:12;143889.41;;;-0.31
48628;BMP280;34424;52.234;6.500;2023-02-28T05:48:14;143883.28;;;-0.34
48628;BMP280;34424;52.234;6.500;2023-02-28T05:53:19;143871.00;;;-0.39
48628;BMP280;34424;52.234;6.500;2023-02-28T05:58:22;143861.19;;;-0.43
48628;BMP280;34424;52.234;6.500;2023-02-28T06:03:26;143841.53;;;-0.51
48628;BMP280;34424;52.234;6.500;2023-02-28T06:08:31;143835.41;;;-0.53
48628;BMP280;34424;52.234;6.500;2023-02-28T06:13:34;143819.47;;;-0.60
48628;BMP280;34424;52.234;6.500;2023-02-28T06:18:38;143797.41;;;-0.69
48628;BMP280;34424;52.234;6.500;2023-02-28T06:23:42;143775.28;;;-0.78
48628;BMP280;34424;52.234;6.500;2023-02-28T06:28:45;143759.34;;;-0.85
48628;BMP280;34424;52.234;6.500;2023-02-28T06:33:48;143755.69;;;-0.86
48628;BMP280;34424;52.234;6.500;2023-02-28T06:38:52;143749.56;;;-0.89
48628;BMP280;34424;52.234;6.500;2023-02-28T06:43:57;143756.91;;;-0.86
48628;BMP280;34424;52.234;6.500;2023-02-28T06:48:59;143764.25;;;-0.83
48628;BMP280;34424;52.234;6.500;2023-02-28T06:54:04;143791.22;;;-0.72
48628;BMP280;34424;52.234;6.500;2023-02-28T06:59:07;143839.09;;;-0.52
48628;BMP280;34424;52.234;6.500;2023-02-28T07:04:09;143884.50;;;-0.33
48628;BMP280;34424;52.234;6.500;2023-02-28T07:09:13;143944.63;;;-0.08
48628;BMP280;34424;52.234;6.500;2023-02-28T07:14:16;144012.16;;;0.20
48628;BMP280;34424;52.234;6.500;2023-02-28T07:19:19;144082.16;;;0.49
48628;BMP280;34424;52.234;6.500;2023-02-28T07:24:23;144160.75;;;0.81
48628;BMP280;34424;52.234;6.500;2023-02-28T07:29:29;144240.59;;;1.14
48628;BMP280;34424;52.234;6.500;2023-02-28T07:34:32;144325.41;;;1.49
48628;BMP280;34424;52.234;6.500;2023-02-28T07:39:36;144699.28;;;3.04
48628;BMP280;34424;52.234;6.500;2023-02-28T07:44:39;145601.59;;;6.76
48628;BMP280;34424;52.234;6.500;2023-02-28T07:49:42;146046.41;;;8.59
48628;BMP280;34424;52.234;6.500;2023-02-28T07:54:46;146158.91;;;9.05
48628;BMP280;34424;52.234;6.500;2023-02-28T07:59:49;146048.88;;;8.60
48628;BMP280;34424;52.234;6.500;2023-02-28T08:04:51;146062.44;;;8.66
48628;BMP280;34424;52.234;6.500;2023-02-28T08:09:55;145957.31;;;8.22
48628;BMP280;34424;52.234;6.500;2023-02-28T08:14:58;145973.44;;;8.29
48628;BMP280;34424;52.234;6.500;2023-02-28T08:20:01;146262.81;;;9.48
48628;BMP280;34424;52.234;6.500;2023-02-28T08:25:07;146401.38;;;10.05
48628;BMP280;34424;52.234;6.500;2023-02-28T08:30:12;145858.50;;;7.82
48628;BMP280;34424;52.234;6.500;2023-02-28T08:35:15;145581.88;;;6.68
48628;BMP280;34424;52.234;6.500;2023-02-28T08:40:18;145689.28;;;7.12
48628;BMP280;34424;52.234;6.500;2023-02-28T08:45:21;146150.25;;;9.02
48628;BMP280;34424;52.234;6.500;2023-02-28T08:50:24;146412.50;;;10.09
48628;BMP280;34424;52.234;6.500;2023-02-28T08:55:28;146421.16;;;10.13
48628;BMP280;34424;52.234;6.500;2023-02-28T09:00:30;146541.28;;;10.62
48628;BMP280;34424;52.234;6.500;2023-02-28T09:05:33;146519.03;;;10.53
48628;BMP280;34424;52.234;6.500;2023-02-28T09:10:37;146649.03;;;11.06
48628;BMP280;34424;52.234;6.500;2023-02-28T09:15:40;146707.25;;;11.30
48628;BMP280;34424;52.234;6.500;2023-02-28T09:20:43;146986.16;;;12.45
48628;BMP280;34424;52.234;6.500;2023-02-28T09:25:48;146911.78;;;12.14
48628;BMP280;34424;52.234;6.500;2023-02-28T09:30:53;147045.66;;;12.69
48628;BMP280;34424;52.234;6.500;2023-02-28T09:36:01;146846.09;;;11.87
48628;BMP280;34424;52.234;6.500;2023-02-28T09:41:13;146967.56;;;12.37
48628;BMP280;34424;52.234;6.500;2023-02-28T09:46:27;146563.59;;;10.71
48628;BMP280;34424;52.234;6.500;2023-02-28T09:51:45;146737.00;;;11.43
48628;BMP280;34424;52.234;6.500;2023-02-28T09:56:55;146625.53;;;10.97
48628;BMP280;34424;52.234;6.500;2023-02-28T10:02:05;146791.53;;;11.65
48628;BMP280;34424;52.234;6.500;2023-02-28T10:07:37;146732.06;;;11.41
48628;BMP280;34424;52.234;6.500;2023-02-28T10:12:47;146817.53;;;11.76
48628;BMP280;34424;52.234;6.500;2023-02-28T10:17:54;146862.19;;;11.94
48628;BMP280;34424;52.234;6.500;2023-02-28T10:23:14;146667.66;;;11.14
48628;BMP280;34424;52.234;6.500;2023-02-28T10:28:20;146821.25;;;11.77
48628;BMP280;34424;52.234;6.500;2023-02-28T10:33:25;146843.63;;;11.86
48628;BMP280;34424;52.234;6.500;2023-02-28T10:38:34;147167.25;;;13.19
48628;BMP280;34424;52.234;6.500;2023-02-28T10:43:40;147225.56;;;13.43
48628;BMP280;34424;52.234;6.500;2023-02-28T10:48:44;146952.72;;;12.31
48628;BMP280;34424;52.234;6.500;2023-02-28T10:53:50;146941.50;;;12.26
48628;BMP280;34424;52.234;6.500;2023-02-28T10:59:25;147025.84;;;12.61
48628;BMP280;34424;52.234;6.500;2023-02-28T11:04:35;146878.31;;;12.01
48628;BMP280;34424;52.234;6.500;2023-02-28T11:09:40;146858.47;;;11.92
48628;BMP280;34424;52.234;6.500;2023-02-28T11:14:49;146791.53;;;11.65
48628;BMP280;34424;52.234;6.500;2023-02-28T11:19:56;146903.13;;;12.11
48628;BMP280;34424;52.234;6.500;2023-02-28T11:25:02;146932.84;;;12.23
48628;BMP280;34424;52.234;6.500;2023-02-28T11:30:28;146693.63;;;11.25
48628;BMP280;34424;52.234;6.500;2023-02-28T11:35:33;146737.00;;;11.43
48628;BMP280;34424;52.234;6.500;2023-02-28T11:40:46;146714.69;;;11.33
48628;BMP280;34424;52.234;6.500;2023-02-28T11:46:12;146810.09;;;11.73
48628;BMP280;34424;52.234;6.500;2023-02-28T11:51:22;146720.91;;;11.36
48628;BMP280;34424;52.234;6.500;2023-02-28T11:56:31;146905.59;;;12.12
48628;BMP280;34424;52.234;6.500;2023-02-28T12:01:49;146979.97;;;12.42
48628;BMP280;34424;52.234;6.500;2023-02-28T12:07:00;146896.91;;;12.08
48628;BMP280;34424;52.234;6.500;2023-02-28T12:12:14;146709.72;;;11.31
48628;BMP280;34424;52.234;6.500;2023-02-28T12:17:35;146813.81;;;11.74
48628;BMP280;34424;52.234;6.500;2023-02-28T12:22:48;146708.50;;;11.31
48628;BMP280;34424;52.234;6.500;2023-02-28T12:27:52;146743.19;;;11.45
48628;BMP280;34424;52.234;6.500;2023-02-28T12:33:01;146714.69;;;11.33
48628;BMP280;34424;52.234;6.500;2023-02-28T12:38:08;146781.63;;;11.61
48628;BMP280;34424;52.234;6.500;2023-02-28T12:43:15;146787.81;;;11.63
48628;BMP280;34424;52.234;6.500;2023-02-28T12:48:25;146623.03;;;10.96
48628;BMP280;34424;52.234;6.500;2023-02-28T12:53:35;146590.81;;;10.83
48628;BMP280;34424;52.234;6.500;2023-02-28T12:58:47;146553.72;;;10.67
48628;BMP280;34424;52.234;6.500;2023-02-28T13:04:05;146714.69;;;11.33
48628;BMP280;34424;52.234;6.500;2023-02-28T13:09:16;146780.38;;;11.60
48628;BMP280;34424;52.234;6.500;2023-02-28T13:14:24;146642.84;;;11.04
48628;BMP280;34424;52.234;6.500;2023-02-28T13:19:30;146618.09;;;10.94
48628;BMP280;34424;52.234;6.500;2023-02-28T13:24:40;146780.38;;;11.60
48628;BMP280;34424;52.234;6.500;2023-02-28T13:29:43;146898.16;;;12.09
48628;BMP280;34424;52.234;6.500;2023-02-28T13:35:15;146910.53;;;12.14
48628;BMP280;34424;52.234;6.500;2023-02-28T13:40:36;146808.84;;;11.72
48628;BMP280;34424;52.234;6.500;2023-02-28T13:46:06;146646.56;;;11.05
48628;BMP280;34424;52.234;6.500;2023-02-28T13:51:30;146541.28;;;10.62
48628;BMP280;34424;52.234;6.500;2023-02-28T13:56:45;146766.72;;;11.55
48628;BMP280;34424;52.234;6.500;2023-02-28T14:02:01;146662.69;;;11.12
48628;BMP280;34424;52.234;6.500;2023-02-28T14:07:07;146528.91;;;10.57
48628;BMP280;34424;52.234;6.500;2023-02-28T14:17:51;146273.94;;;9.52
48628;BMP280;34424;52.234;6.500;2023-02-28T14:23:04;146087.22;;;8.76
48628;BMP280;34424;52.234;6.500;2023-02-28T14:28:18;145858.50;;;7.82
48628;BMP280;34424;52.234;6.500;2023-02-28T14:33:27;145852.28;;;7.79
48628;BMP280;34424;52.234;6.500;2023-02-28T14:38:41;145784.34;;;7.51
48628;BMP280;34424;52.234;6.500;2023-02-28T14:43:54;145848.59;;;7.78
48628;BMP280;34424;52.234;6.500;2023-02-28T14:48:57;145864.69;;;7.84
48628;BMP280;34424;52.234;6.500;2023-02-28T14:54:03;145957.31;;;8.22
48628;BMP280;34424;52.234;6.500;2023-02-28T14:59:23;145961.03;;;8.24
48628;BMP280;34424;52.234;6.500;2023-02-28T15:04:27;145805.38;;;7.60
48628;BMP280;34424;52.234;6.500;2023-02-28T15:09:32;145659.63;;;7.00
48628;BMP280;34424;52.234;6.500;2023-02-28T15:14:36;145779.41;;;7.49
48628;BMP280;34424;52.234;6.500;2023-02-28T15:19:42;145742.41;;;7.34
48628;BMP280;34424;52.234;6.500;2023-02-28T15:24:52;145744.88;;;7.35
48628;BMP280;34424;52.234;6.500;2023-02-28T15:29:57;145809.09;;;7.61
48628;BMP280;34424;52.234;6.500;2023-02-28T15:35:17;145731.25;;;7.29
48628;BMP280;34424;52.234;6.500;2023-02-28T15:40:26;145636.19;;;6.90
48628;BMP280;34424;52.234;6.500;2023-02-28T15:45:33;145596.69;;;6.74
48628;BMP280;34424;52.234;6.500;2023-02-28T15:50:38;145605.31;;;6.77
48628;BMP280;34424;52.234;6.500;2023-02-28T15:55:43;145665.81;;;7.02
48628;BMP280;34424;52.234;6.500;2023-02-28T16:01:00;145667.03;;;7.03
48628;BMP280;34424;52.234;6.500;2023-02-28T16:06:37;145528.81;;;6.46
48628;BMP280;34424;52.234;6.500;2023-02-28T16:11:44;145315.31;;;5.58
48628;BMP280;34424;52.234;6.500;2023-02-28T16:16:50;145209.25;;;5.14
48628;BMP280;34424;52.234;6.500;2023-02-28T16:21:53;145140.25;;;4.86
48628;BMP280;34424;52.234;6.500;2023-02-28T16:26:57;145079.84;;;4.61
48628;BMP280;34424;52.234;6.500;2023-02-28T16:32:01;145021.94;;;4.37
48628;BMP280;34424;52.234;6.500;2023-02-28T16:37:11;144967.72;;;4.15
48628;BMP280;34424;52.234;6.500;2023-02-28T16:42:22;144913.53;;;3.92
48628;BMP280;34424;52.234;6.500;2023-02-28T16:47:26;144826.13;;;3.56
48628;BMP280;34424;52.234;6.500;2023-02-28T16:52:28;144780.56;;;3.37
48628;BMP280;34424;52.234;6.500;2023-02-28T16:57:32;144719.00;;;3.12
48628;BMP280;34424;52.234;6.500;2023-02-28T17:02:35;144650.06;;;2.84
48628;BMP280;34424;52.234;6.500;2023-02-28T17:07:41;144591.00;;;2.59
48628;BMP280;34424;52.234;6.500;2023-02-28T17:12:45;144513.53;;;2.27
48628;BMP280;34424;52.234;6.500;2023-02-28T17:17:49;144453.25;;;2.02
48628;BMP280;34424;52.234;6.500;2023-02-28T17:22:52;144389.34;;;1.76
48628;BMP280;34424;52.234;6.500;2023-02-28T17:27:56;144315.59;;;1.45
48628;BMP280;34424;52.234;6.500;2023-02-28T17:32:59;144241.81;;;1.15
48628;BMP280;34424;52.234;6.500;2023-02-28T17:38:01;144170.59;;;0.85
48628;BMP280;34424;52.234;6.500;2023-02-28T17:43:05;144116.53;;;0.63
48628;BMP280;34424;52.234;6.500;2023-02-28T17:48:09;144062.50;;;0.41
48628;BMP280;34424;52.234;6.500;2023-02-28T17:53:13;143996.19;;;0.13
48628;BMP280;34424;52.234;6.500;2023-02-28T17:58:17;143918.88;;;-0.19
48628;BMP280;34424;52.234;6.500;2023-02-28T18:03:20;143856.28;;;-0.45
48628;BMP280;34424;52.234;6.500;2023-02-28T18:08:23;143821.91;;;-0.59
48628;BMP280;34424;52.234;6.500;2023-02-28T18:13:28;143797.41;;;-0.69
48628;BMP280;34424;52.234;6.500;2023-02-28T18:18:30;143756.91;;;-0.86
48628;BMP280;34424;52.234;6.500;2023-02-28T18:23:33;143718.88;;;-1.02
48628;BMP280;34424;52.234;6.500;2023-02-28T18:28:37;143688.22;;;-1.14
48628;BMP280;34424;52.234;6.500;2023-02-28T18:33:43;143645.31;;;-1.32
48628;BMP280;34424;52.234;6.500;2023-02-28T18:38:46;143615.84;;;-1.44
48628;BMP280;34424;52.234;6.500;2023-02-28T18:43:50;143587.69;;;-1.56
48628;BMP280;34424;52.234;6.500;2023-02-28T18:48:54;143557.00;;;-1.69
48628;BMP280;34424;52.234;6.500;2023-02-28T18:53:58;143565.63;;;-1.65
48628;BMP280;34424;52.234;6.500;2023-02-28T18:59:02;143555.78;;;-1.69
48628;BMP280;34424;52.234;6.500;2023-02-28T19:04:05;143542.31;;;-1.75
48628;BMP280;34424;52.234;6.500;2023-02-28T19:09:08;143530.06;;;-1.80
48628;BMP280;34424;52.234;6.500;2023-02-28T19:14:12;143500.63;;;-1.92
48628;BMP280;34424;52.234;6.500;2023-02-28T19:19:14;143466.34;;;-2.06
48628;BMP280;34424;52.234;6.500;2023-02-28T19:24:17;143434.47;;;-2.20
48628;BMP280;34424;52.234;6.500;2023-02-28T19:29:22;143395.31;;;-2.36
48628;BMP280;34424;52.234;6.500;2023-02-28T19:34:24;143363.44;;;-2.49
48628;BMP280;34424;52.234;6.500;2023-02-28T19:39:27;143383.00;;;-2.41
48628;BMP280;34424;52.234;6.500;2023-02-28T19:44:31;143370.78;;;-2.46
48628;BMP280;34424;52.234;6.500;2023-02-28T19:49:34;143346.28;;;-2.56
48628;BMP280;34424;52.234;6.500;2023-02-28T19:54:37;143302.19;;;-2.74
48628;BMP280;34424;52.234;6.500;2023-02-28T19:59:41;143265.44;;;-2.90
48628;BMP280;34424;52.234;6.500;2023-02-28T20:04:45;143231.19;;;-3.04
48628;BMP280;34424;52.234;6.500;2023-02-28T20:09:48;143221.34;;;-3.08
48628;BMP280;34424;52.234;6.500;2023-02-28T20:14:53;143216.47;;;-3.10
48628;BMP280;34424;52.234;6.500;2023-02-28T20:19:56;143209.13;;;-3.13
48628;BMP280;34424;52.234;6.500;2023-02-28T20:24:59;143195.66;;;-3.19
48628;BMP280;34424;52.234;6.500;2023-02-28T20:30:04;143181.00;;;-3.25
48628;BMP280;34424;52.234;6.500;2023-02-28T20:35:08;143177.31;;;-3.26
48628;BMP280;34424;52.234;6.500;2023-02-28T20:40:12;143171.22;;;-3.29
48628;BMP280;34424;52.234;6.500;2023-02-28T20:45:17;143151.59;;;-3.37
48628;BMP280;34424;52.234;6.500;2023-02-28T20:50:20;143124.69;;;-3.48
48628;BMP280;34424;52.234;6.500;2023-02-28T20:55:23;143117.34;;;-3.51
48628;BMP280;34424;52.234;6.500;2023-02-28T21:00:27;143105.06;;;-3.56
48628;BMP280;34424;52.234;6.500;2023-02-28T21:05:30;143112.47;;;-3.53
48628;BMP280;34424;52.234;6.500;2023-02-28T21:10:33;143081.84;;;-3.66
48628;BMP280;34424;52.234;6.500;2023-02-28T21:15:37;143057.41;;;-3.76
48628;BMP280;34424;52.234;6.500;2023-02-28T21:20:40;143028.00;;;-3.88
48628;BMP280;34424;52.234;6.500;2023-02-28T21:25:42;143045.13;;;-3.81
48628;BMP280;34424;52.234;6.500;2023-02-28T21:30:47;143036.56;;;-3.85
48628;BMP280;34424;52.234;6.500;2023-02-28T21:35:49;143020.69;;;-3.91
48628;BMP280;34424;52.234;6.500;2023-02-28T21:40:53;143010.91;;;-3.95
48628;BMP280;34424;52.234;6.500;2023-02-28T21:45:59;142974.19;;;-4.11
48628;BMP280;34424;52.234;6.500;2023-02-28T21:51:04;142952.19;;;-4.20
48628;BMP280;34424;52.234;6.500;2023-02-28T21:56:12;142949.75;;;-4.21
48628;BMP280;34424;52.234;6.500;2023-02-28T22:01:17;142930.16;;;-4.29
48628;BMP280;34424;52.234;6.500;2023-02-28T22:06:22;142908.16;;;-4.38
48628;BMP280;34424;52.234;6.500;2023-02-28T22:11:25;142903.25;;;-4.40
48628;BMP280;34424;52.234;6.500;2023-02-28T22:16:30;142888.59;;;-4.46
48628;BMP280;34424;52.234;6.500;2023-02-28T22:21:50;142886.16;;;-4.47
48628;BMP280;34424;52.234;6.500;2023-02-28T22:26:54;142898.38;;;-4.42
48628;BMP280;34424;52.234;6.500;2023-02-28T22:31:58;142880.00;;;-4.50
48628;BMP280;34424;52.234;6.500;2023-02-28T22:37:01;142864.13;;;-4.56
48628;BMP280;34424;52.234;6.500;2023-02-28T22:42:04;142875.13;;;-4.52
48628;BMP280;34424;52.234;6.500;2023-02-28T22:47:08;142886.16;;;-4.47
48628;BMP280;34424;52.234;6.500;2023-02-28T22:52:11;142883.72;;;-4.48
48628;BMP280;34424;52.234;6.500;2023-02-28T22:57:13;142875.13;;;-4.52
48628;BMP280;34424;52.234;6.500;2023-02-28T23:02:17;142873.91;;;-4.52
48628;BMP280;34424;52.234;6.500;2023-02-28T23:07:20;142895.94;;;-4.43
48628;BMP280;34424;52.234;6.500;2023-02-28T23:12:22;142861.69;;;-4.57
48628;BMP280;34424;52.234;6.500;2023-02-28T23:17:26;142828.69;;;-4.71
48628;BMP280;34424;52.234;6.500;2023-02-28T23:22:29;142801.78;;;-4.82
48628;BMP280;34424;52.234;6.500;2023-02-28T23:27:32;142798.13;;;-4.84
48628;BMP280;34424;52.234;6.500;2023-02-28T23:32:37;142793.22;;;-4.86
48628;BMP280;34424;52.234;6.500;2023-02-28T23:37:40;142778.56;;;-4.92
48628;BMP280;34424;52.234;6.500;2023-02-28T23:42:44;142810.34;;;-4.79
48628;BMP280;34424;52.234;6.500;2023-02-28T23:47:47;142778.56;;;-4.92
48628;BMP280;34424;52.234;6.500;2023-02-28T23:52:51;142785.91;;;-4.89
48628;BMP280;34424;52.234;6.500;2023-02-28T23:57:54;142781.03;;;-4.91
